createdAt,value
2022-10-25T00:08:25.204Z,78.21
2022-10-25T00:18:53.059Z,78.14
2022-10-25T00:29:19.053Z,78.38
2022-10-25T00:39:48.135Z,78.49
2022-10-25T00:50:22.707Z,77.95
2022-10-25T01:00:50.951Z,78.15
2022-10-25T01:11:18.748Z,77.85
2022-10-25T01:21:52.038Z,77.44
2022-10-25T01:32:25.465Z,77.35
2022-10-25T01:43:01.225Z,77.41
2022-10-25T01:53:28.569Z,77.33
2022-10-25T02:04:02.785Z,77.25
2022-10-25T02:14:35.733Z,77.03
2022-10-25T02:25:04.093Z,76.90
2022-10-25T02:35:31.720Z,76.69
2022-10-25T02:45:59.081Z,76.33
2022-10-25T02:56:26.544Z,76.64
2022-10-25T03:06:53.907Z,76.47
2022-10-25T03:17:21.249Z,76.75
2022-10-25T03:27:48.961Z,76.95
2022-10-25T03:38:14.845Z,76.47
2022-10-25T03:48:42.193Z,75.87
2022-10-25T03:59:09.627Z,75.60
2022-10-25T04:09:37.037Z,75.40
2022-10-25T04:20:04.796Z,75.77
2022-10-25T04:30:36.439Z,75.85
2022-10-25T04:41:06.329Z,75.95
2022-10-25T04:51:34.350Z,76.00
2022-10-25T05:02:01.945Z,76.52
2022-10-25T05:12:29.482Z,76.64
2022-10-25T05:22:56.869Z,77.05
2022-10-25T05:33:24.282Z,76.32
2022-10-25T05:43:51.581Z,76.10
2022-10-25T05:54:18.918Z,76.17
2022-10-25T06:04:51.531Z,76.37
2022-10-25T06:15:19.956Z,76.13
2022-10-25T06:25:47.317Z,76.40
2022-10-25T06:36:15.491Z,76.89
2022-10-25T06:47:15.333Z,77.03
2022-10-25T06:57:31.439Z,77.20
2022-10-25T07:07:58.775Z,77.32
2022-10-25T07:18:26.042Z,77.66
2022-10-25T07:28:55.088Z,78.01
2022-10-25T07:39:22.494Z,78.12
2022-10-25T07:49:49.805Z,78.20
2022-10-25T08:00:18.039Z,78.09
2022-10-25T08:10:46.133Z,78.13
2022-10-25T08:21:13.638Z,78.26
2022-10-25T08:31:41.253Z,78.21
2022-10-25T08:42:15.982Z,78.34
2022-10-25T08:52:46.981Z,77.84
2022-10-25T09:03:24.874Z,77.80
2022-10-25T09:14:00.783Z,77.79
2022-10-25T09:24:34.964Z,77.80
2022-10-25T09:35:04.750Z,78.13
2022-10-25T09:45:42.098Z,78.55
2022-10-25T09:56:10.044Z,79.28
2022-10-25T10:06:40.577Z,79.49
2022-10-25T10:17:13.855Z,79.48
2022-10-25T10:27:45.275Z,79.50
2022-10-25T10:38:32.513Z,79.21
2022-10-25T10:49:03.173Z,78.93
2022-10-25T10:59:35.091Z,78.75
2022-10-25T11:10:26.846Z,78.59
2022-10-25T11:21:00.432Z,78.18
2022-10-25T11:31:38.984Z,77.81
2022-10-25T11:42:21.101Z,77.02
2022-10-25T11:53:16.570Z,76.29
2022-10-25T12:04:01.143Z,75.90
2022-10-25T12:14:33.378Z,75.60
2022-10-25T12:25:02.464Z,75.10
2022-10-25T12:35:32.408Z,74.96
2022-10-25T12:46:29.545Z,74.00
2022-10-25T12:57:07.612Z,71.77
2022-10-25T13:07:37.257Z,69.98
2022-10-25T13:18:26.398Z,68.75
2022-10-25T13:28:55.957Z,69.11
2022-10-25T13:39:26.499Z,68.31
2022-10-25T13:49:53.939Z,68.23
2022-10-25T14:00:39.553Z,68.94
2022-10-25T14:11:11.274Z,69.60
2022-10-25T14:21:38.909Z,69.31
2022-10-25T14:32:14.615Z,68.18
2022-10-25T14:42:42.008Z,67.83
2022-10-25T14:53:17.269Z,67.19
2022-10-25T15:03:47.257Z,67.03
2022-10-25T15:14:23.422Z,67.19
2022-10-25T15:24:50.749Z,67.95
2022-10-25T15:35:26.709Z,68.33
2022-10-25T15:45:54.736Z,68.82
2022-10-25T15:56:22.832Z,69.30
2022-10-25T16:06:50.454Z,69.38
2022-10-25T16:17:17.799Z,69.28
2022-10-25T16:27:46.476Z,68.95
2022-10-25T16:38:14.236Z,68.67
2022-10-25T16:48:41.599Z,68.64
2022-10-25T16:59:09.017Z,68.48
2022-10-25T17:09:36.346Z,68.53
2022-10-25T17:20:03.861Z,68.13
2022-10-25T17:30:31.150Z,69.00
2022-10-25T17:40:58.478Z,69.15
2022-10-25T17:51:25.832Z,68.54
2022-10-25T18:01:53.220Z,69.21
2022-10-25T18:12:20.578Z,68.74
2022-10-25T18:22:47.941Z,68.18
2022-10-25T18:33:15.345Z,68.89
2022-10-25T18:43:42.788Z,68.95
2022-10-25T18:54:12.611Z,68.81
2022-10-25T19:04:39.914Z,68.99
2022-10-25T19:15:08.494Z,69.09
2022-10-25T19:25:35.870Z,69.15
2022-10-25T19:36:07.450Z,68.75
2022-10-25T19:46:35.752Z,68.67
2022-10-25T19:57:03.575Z,68.46
2022-10-25T20:07:31.091Z,68.20
2022-10-25T20:17:59.146Z,68.18
2022-10-25T20:28:25.106Z,68.22
2022-10-25T20:38:53.084Z,68.20
2022-10-25T20:49:18.907Z,68.04
2022-10-25T20:59:47.329Z,68.13
2022-10-25T21:10:14.619Z,67.69
2022-10-25T21:20:42.197Z,67.96
2022-10-25T21:31:11.882Z,68.21
2022-10-25T21:41:39.236Z,67.91
2022-10-25T21:52:07.104Z,67.86
2022-10-25T22:02:34.921Z,68.11
2022-10-25T22:13:02.399Z,68.28
2022-10-25T22:23:31.905Z,68.18
2022-10-25T22:34:01.494Z,67.86
2022-10-25T22:44:28.818Z,67.76
2022-10-25T22:54:56.119Z,67.39
2022-10-25T23:05:23.419Z,66.78
2022-10-25T23:15:50.646Z,66.73
2022-10-25T23:26:20.345Z,66.71
2022-10-25T23:36:47.681Z,66.51
2022-10-25T23:47:14.938Z,66.81
2022-10-25T23:57:42.638Z,66.24
